Time;durP1;ratioP1;P1;durP2;ratioP2;P2;SDS_P1;SDS_P2;PMS_P1;PMS_P2;Temp;Humidity;BMP_temperature;BMP_pressure;BME280_temperature;BME280_humidity;BME280_pressure;Samples;Min_cycle;Max_cycle;Signal;HPM_P1;HPM_P2
2023/01/12 00:02:09;;;;;;;8.90;3.50;;;8.60;99.90;;;;;;6039241;23;20812;-76
2023/01/12 00:04:37;;;;;;;10.90;3.33;;;8.60;99.90;;;;;;6039244;23;20416;-76
2023/01/12 00:07:07;;;;;;;9.97;3.67;;;8.60;99.90;;;;;;6041188;23;20431;-75
2023/01/12 00:09:35;;;;;;;11.97;3.90;;;8.60;99.90;;;;;;6039291;23;20479;-75
2023/01/12 00:12:05;;;;;;;7.93;3.20;;;8.60;99.90;;;;;;6038980;23;20427;-75
2023/01/12 00:14:33;;;;;;;8.87;3.40;;;8.60;99.90;;;;;;6050337;23;20430;-75
2023/01/12 00:17:02;;;;;;;11.03;3.93;;;8.60;99.90;;;;;;6039029;23;20444;-75
2023/01/12 00:19:32;;;;;;;8.63;3.30;;;8.60;99.90;;;;;;6050204;23;20404;-75
2023/01/12 00:22:05;;;;;;;10.77;3.10;;;8.50;99.90;;;;;;6039414;23;20938;-75
2023/01/12 00:24:36;;;;;;;7.20;3.07;;;8.50;99.90;;;;;;6050505;23;20377;-75
2023/01/12 00:27:06;;;;;;;6.80;3.57;;;8.60;99.90;;;;;;6039478;23;20440;-76
2023/01/12 00:29:36;;;;;;;8.70;3.30;;;8.60;99.90;;;;;;6040636;23;20811;-75
2023/01/12 00:32:06;;;;;;;7.17;3.17;;;8.50;99.90;;;;;;6052305;23;20415;-76
2023/01/12 00:34:35;;;;;;;8.60;3.63;;;8.60;99.90;;;;;;6052286;23;20430;-76
2023/01/12 00:37:04;;;;;;;7.63;3.20;;;8.50;99.90;;;;;;6041678;23;20435;-76
2023/01/12 00:39:32;;;;;;;10.47;4.10;;;8.50;99.90;;;;;;6040935;23;20432;-75
2023/01/12 00:47:32;;;;;;;9.90;3.80;;;8.50;99.90;;;;;;6038893;23;20533;-75
2023/01/12 00:50:01;;;;;;;8.17;3.57;;;8.50;99.90;;;;;;6038696;23;20438;-76
2023/01/12 00:52:31;;;;;;;7.30;3.20;;;8.50;99.90;;;;;;6038900;23;20804;-76
2023/01/12 00:54:59;;;;;;;6.30;3.57;;;8.50;99.90;;;;;;6038652;23;20446;-75
2023/01/12 00:57:28;;;;;;;9.40;3.33;;;8.50;99.90;;;;;;6049743;23;20430;-75
2023/01/12 00:59:58;;;;;;;7.23;4.00;;;8.50;99.90;;;;;;6049869;23;20460;-75
2023/01/12 01:02:27;;;;;;;8.57;4.77;;;8.50;99.90;;;;;;6050448;23;20392;-75
2023/01/12 01:04:56;;;;;;;10.50;4.20;;;8.50;99.90;;;;;;6038576;23;20419;-75
2023/01/12 01:07:25;;;;;;;8.70;4.50;;;8.60;99.90;;;;;;6050207;23;20491;-75
2023/01/12 01:09:54;;;;;;;8.10;4.20;;;8.50;99.90;;;;;;6049640;23;20414;-76
2023/01/12 01:12:22;;;;;;;11.50;4.00;;;8.60;99.90;;;;;;6049593;23;20494;-75
2023/01/12 01:14:52;;;;;;;10.70;4.27;;;8.60;99.90;;;;;;6049883;23;20435;-75
2023/01/12 01:17:20;;;;;;;7.47;3.87;;;8.60;99.90;;;;;;6049641;23;20420;-75
2023/01/12 01:19:48;;;;;;;6.73;3.37;;;8.60;99.90;;;;;;6040456;23;20416;-75
2023/01/12 01:22:16;;;;;;;8.77;3.60;;;8.60;99.90;;;;;;6049603;23;20494;-75
2023/01/12 01:24:47;;;;;;;7.83;3.17;;;8.60;99.90;;;;;;6038210;23;20416;-75
2023/01/12 01:27:15;;;;;;;6.47;2.60;;;8.60;99.90;;;;;;6049941;23;20423;-75
2023/01/12 01:29:43;;;;;;;5.37;2.10;;;8.60;99.90;;;;;;6038351;23;20419;-76
2023/01/12 01:32:11;;;;;;;6.37;2.50;;;8.60;99.90;;;;;;6038461;23;20422;-75
2023/01/12 01:34:40;;;;;;;5.57;2.40;;;8.60;99.90;;;;;;6038328;23;20533;-76
2023/01/12 01:37:09;;;;;;;6.47;2.50;;;8.60;99.90;;;;;;6038506;23;20974;-76
2023/01/12 01:39:37;;;;;;;6.33;1.90;;;8.60;99.90;;;;;;6049601;23;20412;-76
2023/01/12 01:42:26;;;;;;;5.57;1.87;;;8.50;99.90;;;;;;6049417;23;20407;-76
2023/01/12 01:44:56;;;;;;;5.60;2.00;;;8.50;99.90;;;;;;6049831;23;20900;-76
2023/01/12 01:47:36;;;;;;;4.00;1.57;;;8.50;99.90;;;;;;6040284;23;20427;-75
2023/01/12 01:50:14;;;;;;;5.27;1.80;;;8.40;99.90;;;;;;6040677;23;20418;-76
2023/01/12 01:52:45;;;;;;;6.40;1.80;;;8.40;99.90;;;;;;6014894;23;20412;-76
2023/01/12 01:55:17;;;;;;;5.40;2.10;;;8.40;99.90;;;;;;6049346;23;20478;-76
2023/01/12 01:57:51;;;;;;;4.30;1.47;;;8.30;99.90;;;;;;6050124;23;20474;-76
2023/01/12 02:00:19;;;;;;;6.10;1.90;;;8.30;99.90;;;;;;6014983;23;20430;-76
2023/01/12 02:02:48;;;;;;;6.20;2.50;;;8.30;99.90;;;;;;6040275;23;20491;-76
2023/01/12 02:05:20;;;;;;;9.33;2.93;;;8.30;99.90;;;;;;6014590;23;20409;-75
2023/01/12 02:07:48;;;;;;;5.23;2.53;;;8.20;99.90;;;;;;6014717;23;20418;-75
2023/01/12 02:10:17;;;;;;;6.37;2.73;;;8.30;99.90;;;;;;6014729;23;20428;-75
2023/01/12 02:18:39;;;;;;;6.30;3.63;;;8.20;99.90;;;;;;6014421;23;20420;-76
2023/01/12 02:21:20;;;;;;;6.17;3.27;;;8.20;99.90;;;;;;6049576;23;20720;-75
2023/01/12 02:24:25;;;;;;;8.40;3.87;;;8.20;99.90;;;;;;6039878;23;20392;-76
2023/01/12 02:27:22;;;;;;;11.57;4.73;;;8.10;99.90;;;;;;6049298;23;20458;-75
2023/01/12 02:30:38;;;;;;;7.77;4.60;;;8.10;99.90;;;;;;6049476;23;20407;-75
2023/01/12 02:33:26;;;;;;;9.40;5.50;;;8.10;99.90;;;;;;5980222;23;20416;-75
2023/01/12 02:36:01;;;;;;;8.87;5.20;;;8.10;99.90;;;;;;6040466;23;20451;-75
2023/01/12 02:38:36;;;;;;;10.83;5.90;;;8.10;99.90;;;;;;6051360;23;20411;-75
2023/01/12 02:41:12;;;;;;;10.17;5.40;;;8.10;99.90;;;;;;6041763;23;20402;-75
2023/01/12 02:43:41;;;;;;;8.97;5.57;;;8.10;99.90;;;;;;6016210;23;20414;-75
2023/01/12 02:46:14;;;;;;;11.00;6.33;;;8.20;99.90;;;;;;6050758;23;20431;-75
2023/01/12 02:48:51;;;;;;;8.30;5.23;;;8.20;99.90;;;;;;6050942;23;20411;-75
2023/01/12 02:51:28;;;;;;;8.20;4.77;;;8.20;99.90;;;;;;6051011;23;20408;-75
2023/01/12 02:54:01;;;;;;;12.90;4.77;;;8.20;99.90;;;;;;6016129;23;20426;-75
2023/01/12 02:56:33;;;;;;;11.70;4.87;;;8.20;99.90;;;;;;6050943;23;20422;-75
2023/01/12 02:59:06;;;;;;;10.90;4.63;;;8.20;99.90;;;;;;6016114;23;20767;-75
2023/01/12 03:01:37;;;;;;;11.00;5.00;;;8.20;99.90;;;;;;6016012;23;20415;-75
2023/01/12 03:04:09;;;;;;;11.30;4.37;;;8.20;99.90;;;;;;6017401;23;20752;-75
2023/01/12 03:06:40;;;;;;;10.30;5.17;;;8.20;99.90;;;;;;6050591;23;20419;-75
2023/01/12 03:09:09;;;;;;;9.60;4.67;;;8.20;99.90;;;;;;6051076;23;20855;-75
2023/01/12 03:11:40;;;;;;;6.57;4.17;;;8.30;99.90;;;;;;6015856;23;20456;-75
2023/01/12 03:14:10;;;;;;;12.37;4.87;;;8.30;99.90;;;;;;6015902;23;20747;-75
2023/01/12 03:16:40;;;;;;;8.67;4.30;;;8.30;99.90;;;;;;6015777;23;20446;-75
2023/01/12 03:19:13;;;;;;;10.77;4.40;;;8.30;99.90;;;;;;6050553;23;20783;-76
2023/01/12 03:21:47;;;;;;;9.83;4.03;;;8.30;99.90;;;;;;6050892;23;20875;-75
2023/01/12 03:24:19;;;;;;;7.67;4.43;;;8.40;99.90;;;;;;6015767;23;20507;-76
2023/01/12 03:26:50;;;;;;;8.93;4.30;;;8.40;99.90;;;;;;6050460;23;20506;-76
2023/01/12 03:29:25;;;;;;;8.57;4.67;;;8.40;99.90;;;;;;6050576;23;20391;-76
2023/01/12 03:31:53;;;;;;;6.40;4.37;;;8.40;99.90;;;;;;6015876;23;20901;-76
2023/01/12 03:34:23;;;;;;;11.37;4.57;;;8.40;99.90;;;;;;6015639;23;20518;-76
2023/01/12 03:36:58;;;;;;;8.20;4.30;;;8.40;99.90;;;;;;6050456;23;20422;-76
2023/01/12 03:39:34;;;;;;;8.17;4.70;;;8.40;99.90;;;;;;6015670;23;20939;-75
2023/01/12 03:42:08;;;;;;;10.90;4.67;;;8.40;99.90;;;;;;6050738;23;20384;-76
2023/01/12 03:44:41;;;;;;;8.67;4.77;;;8.40;99.90;;;;;;6015742;23;20416;-76
2023/01/12 03:47:17;;;;;;;12.13;5.30;;;8.40;99.90;;;;;;6015168;23;20451;-76
2023/01/12 03:49:51;;;;;;;13.73;5.63;;;8.40;99.90;;;;;;6050446;23;20924;-76
2023/01/12 03:52:22;;;;;;;7.43;4.63;;;8.40;99.90;;;;;;6050591;23;20383;-76
2023/01/12 03:54:51;;;;;;;6.30;4.87;;;8.40;99.90;;;;;;6050633;23;20426;-76
2023/01/12 03:57:20;;;;;;;9.00;6.10;;;8.40;99.90;;;;;;6050405;23;20483;-76
2023/01/12 03:59:48;;;;;;;8.23;6.00;;;8.40;99.90;;;;;;6016334;23;20426;-76
2023/01/12 04:02:17;;;;;;;7.90;5.53;;;8.40;99.90;;;;;;6050191;23;20401;-76
2023/01/12 04:04:46;;;;;;;10.00;4.27;;;8.40;99.90;;;;;;6050248;23;20802;-75
2023/01/12 04:07:14;;;;;;;9.10;5.30;;;8.40;99.90;;;;;;6050168;23;20438;-76
2023/01/12 04:09:42;;;;;;;10.90;6.10;;;8.50;99.90;;;;;;6050501;23;20419;-76
2023/01/12 04:12:10;;;;;;;9.67;5.63;;;8.40;99.90;;;;;;6050047;23;20407;-76
2023/01/12 04:14:39;;;;;;;7.97;5.80;;;8.40;99.90;;;;;;6015228;23;20425;-76
2023/01/12 04:17:08;;;;;;;10.90;5.73;;;8.40;99.90;;;;;;6015194;23;20558;-76
2023/01/12 04:19:37;;;;;;;9.73;6.40;;;8.40;99.90;;;;;;6015348;23;20892;-75
2023/01/12 04:24:53;;;;;;;10.40;6.83;;;8.40;99.90;;;;;;6015262;23;20749;-76
2023/01/12 04:27:21;;;;;;;7.20;6.00;;;8.40;99.90;;;;;;6049923;23;20423;-76
2023/01/12 04:29:49;;;;;;;10.20;5.63;;;8.40;99.90;;;;;;6015210;23;20427;-76
2023/01/12 04:32:17;;;;;;;10.37;5.53;;;8.50;99.90;;;;;;6015236;23;20892;-76
2023/01/12 04:34:45;;;;;;;10.03;5.80;;;8.40;99.90;;;;;;6015119;23;20884;-76
2023/01/12 04:37:15;;;;;;;7.07;5.30;;;8.50;99.90;;;;;;6049791;23;20432;-76
2023/01/12 04:39:43;;;;;;;10.83;5.50;;;8.50;99.90;;;;;;6040308;23;20994;-76
2023/01/12 04:44:53;;;;;;;9.10;5.30;;;8.50;99.90;;;;;;6013962;23;20424;-76
2023/01/12 04:47:21;;;;;;;9.20;5.13;;;8.50;99.90;;;;;;6049788;23;20420;-76
2023/01/12 04:49:49;;;;;;;9.33;5.03;;;8.50;99.90;;;;;;6042113;23;20911;-76
2023/01/12 04:52:19;;;;;;;9.20;4.60;;;8.50;99.90;;;;;;6040486;23;20411;-76
2023/01/12 04:54:47;;;;;;;7.90;4.77;;;8.50;99.90;;;;;;6049913;23;20504;-75
2023/01/12 04:57:15;;;;;;;7.37;4.63;;;8.50;99.90;;;;;;6015009;23;20947;-76
2023/01/12 04:59:43;;;;;;;8.50;5.10;;;8.50;99.90;;;;;;6049666;23;20408;-75
2023/01/12 05:02:11;;;;;;;12.57;5.33;;;8.50;99.90;;;;;;6014913;23;20424;-76
2023/01/12 05:04:41;;;;;;;7.37;4.53;;;8.50;99.90;;;;;;6049879;23;20475;-75
2023/01/12 05:07:09;;;;;;;6.57;4.57;;;8.50;99.90;;;;;;6015272;23;20440;-76
2023/01/12 05:12:25;;;;;;;6.20;4.63;;;8.60;99.90;;;;;;6015940;23;20415;-76
2023/01/12 05:14:54;;;;;;;8.93;4.40;;;8.60;99.90;;;;;;6015143;23;20771;-76
2023/01/12 05:17:22;;;;;;;9.67;4.63;;;8.60;99.90;;;;;;6015114;23;20481;-77
2023/01/12 05:19:51;;;;;;;8.37;4.30;;;8.60;99.90;;;;;;6050029;23;20404;-76
2023/01/12 05:22:19;;;;;;;8.57;4.30;;;8.60;99.90;;;;;;6049768;23;20415;-76
2023/01/12 05:24:49;;;;;;;8.40;5.43;;;8.60;99.90;;;;;;6015242;23;20459;-76
2023/01/12 05:27:18;;;;;;;6.73;4.57;;;8.60;99.90;;;;;;6015549;23;20439;-77
2023/01/12 05:29:48;;;;;;;7.60;4.53;;;8.60;99.90;;;;;;6050541;23;20460;-76
2023/01/12 05:32:17;;;;;;;6.07;4.17;;;8.60;99.90;;;;;;6015436;23;20761;-76
2023/01/12 05:34:47;;;;;;;10.33;3.77;;;8.60;99.90;;;;;;6015278;23;20424;-75
2023/01/12 05:37:17;;;;;;;9.07;4.13;;;8.60;99.90;;;;;;6050558;23;20530;-75
2023/01/12 05:39:45;;;;;;;9.10;4.70;;;8.60;99.90;;;;;;6040247;23;20404;-75
2023/01/12 05:45:01;;;;;;;8.13;4.30;;;8.60;99.90;;;;;;6014791;23;20419;-76
2023/01/12 05:47:29;;;;;;;6.37;3.90;;;8.60;99.90;;;;;;6015430;23;20808;-77
2023/01/12 05:49:57;;;;;;;7.37;3.93;;;8.70;99.90;;;;;;6039741;23;20420;-77
2023/01/12 05:52:26;;;;;;;9.10;3.67;;;8.60;99.90;;;;;;6049703;23;20412;-76
2023/01/12 05:54:54;;;;;;;7.83;3.37;;;8.70;99.90;;;;;;6014899;23;20416;-76
2023/01/12 05:57:24;;;;;;;10.67;3.83;;;8.70;99.90;;;;;;6014750;23;20526;-76
2023/01/12 05:59:53;;;;;;;6.33;3.63;;;8.70;99.90;;;;;;6015063;23;20423;-76
2023/01/12 06:02:21;;;;;;;8.40;5.70;;;8.70;99.90;;;;;;6015269;23;20428;-76
2023/01/12 06:04:49;;;;;;;5.43;3.37;;;8.70;99.90;;;;;;6014994;23;20420;-76
2023/01/12 06:07:18;;;;;;;6.63;3.60;;;8.70;99.90;;;;;;6049667;23;20511;-76
2023/01/12 06:09:46;;;;;;;8.30;3.43;;;8.70;99.90;;;;;;6039925;23;20408;-76
2023/01/12 06:15:00;;;;;;;5.00;3.30;;;8.80;99.90;;;;;;6016739;23;20415;-77
2023/01/12 06:17:30;;;;;;;5.47;3.40;;;8.70;99.90;;;;;;6016658;23;20454;-76
2023/01/12 06:19:58;;;;;;;8.93;3.90;;;8.70;99.90;;;;;;6051357;23;20407;-76
2023/01/12 06:22:26;;;;;;;7.43;3.23;;;8.70;99.90;;;;;;6053909;23;20428;-75
2023/01/12 06:24:55;;;;;;;5.90;3.30;;;8.70;99.90;;;;;;6054298;23;20487;-76
2023/01/12 06:27:23;;;;;;;5.63;3.17;;;8.70;99.90;;;;;;6053829;23;20420;-77
2023/01/12 06:29:51;;;;;;;8.17;3.53;;;8.70;99.90;;;;;;6051877;23;20411;-76
2023/01/12 06:32:20;;;;;;;6.30;3.10;;;8.70;99.90;;;;;;6016336;23;20431;-75
2023/01/12 06:34:48;;;;;;;5.93;2.90;;;8.70;99.90;;;;;;6016308;23;20729;-76
2023/01/12 06:37:16;;;;;;;5.00;2.67;;;8.70;99.90;;;;;;6050925;23;20899;-76
2023/01/12 06:39:44;;;;;;;5.63;2.87;;;8.70;99.90;;;;;;6050962;23;20469;-76
2023/01/12 06:42:32;;;;;;;7.33;3.33;;;8.70;99.90;;;;;;6041687;23;20416;-75
2023/01/12 06:45:02;;;;;;;6.73;2.83;;;8.70;99.90;;;;;;6016236;23;20420;-76
2023/01/12 06:47:32;;;;;;;7.10;2.70;;;8.70;99.90;;;;;;6016188;23;20535;-75
2023/01/12 06:50:00;;;;;;;6.20;3.07;;;8.70;99.90;;;;;;6050683;23;20407;-75
2023/01/12 06:52:29;;;;;;;5.37;2.63;;;8.70;99.90;;;;;;6016703;23;20428;-76
2023/01/12 06:54:58;;;;;;;5.30;2.40;;;8.70;99.90;;;;;;6016164;23;20459;-76
2023/01/12 06:57:26;;;;;;;9.93;4.90;;;8.70;99.90;;;;;;6052483;23;20468;-77
2023/01/12 06:59:55;;;;;;;4.70;2.73;;;8.70;99.90;;;;;;6016330;23;20414;-75
2023/01/12 07:02:23;;;;;;;10.33;4.40;;;8.70;99.90;;;;;;6052138;23;20462;-76
2023/01/12 07:04:52;;;;;;;5.93;2.50;;;8.70;99.90;;;;;;6051784;23;20400;-77
2023/01/12 07:07:21;;;;;;;7.00;2.77;;;8.70;99.90;;;;;;6043534;23;20459;-77
2023/01/12 07:09:49;;;;;;;5.03;2.30;;;8.70;99.90;;;;;;6051105;23;20907;-78
2023/01/12 07:12:17;;;;;;;6.27;2.50;;;8.70;99.90;;;;;;6016554;23;20428;-78
2023/01/12 07:14:45;;;;;;;4.47;2.00;;;8.70;99.90;;;;;;6016009;23;20430;-76
2023/01/12 07:17:13;;;;;;;4.37;2.47;;;8.60;99.90;;;;;;6015704;23;20450;-76
2023/01/12 07:19:42;;;;;;;8.80;2.47;;;8.60;99.90;;;;;;6015927;23;20430;-77
2023/01/12 07:22:11;;;;;;;4.27;2.00;;;8.60;99.90;;;;;;6015171;23;20757;-76
2023/01/12 07:24:39;;;;;;;6.60;3.80;;;8.60;99.90;;;;;;6015858;23;20419;-77
2023/01/12 07:27:07;;;;;;;4.90;2.27;;;8.60;99.90;;;;;;6015768;23;20443;-77
2023/01/12 07:29:35;;;;;;;4.37;2.80;;;8.60;99.90;;;;;;6050544;23;20404;-77
2023/01/12 07:32:04;;;;;;;5.10;2.77;;;8.60;99.90;;;;;;6050634;23;20412;-76
2023/01/12 07:34:32;;;;;;;5.50;2.97;;;8.60;99.90;;;;;;6050597;23;20411;-77
2023/01/12 07:37:01;;;;;;;4.67;2.50;;;8.60;99.90;;;;;;6050225;23;20937;-76
2023/01/12 07:39:30;;;;;;;6.37;2.80;;;8.60;99.90;;;;;;6050476;23;20428;-76
2023/01/12 07:44:43;;;;;;;4.60;3.17;;;8.60;99.90;;;;;;6015644;23;20416;-77
2023/01/12 07:47:12;;;;;;;4.37;2.90;;;8.60;99.90;;;;;;6051026;23;20432;-77
2023/01/12 07:49:40;;;;;;;7.20;3.00;;;8.60;99.90;;;;;;6027990;23;20436;-77
2023/01/12 07:52:10;;;;;;;4.30;2.90;;;8.60;99.90;;;;;;6039507;23;20510;-77
2023/01/12 07:54:40;;;;;;;4.70;2.97;;;8.60;99.90;;;;;;6040321;23;20412;-77
2023/01/12 07:57:10;;;;;;;4.93;3.40;;;8.60;99.90;;;;;;6050132;23;20446;-77
2023/01/12 07:59:38;;;;;;;4.83;2.77;;;8.60;99.90;;;;;;6050787;23;20387;-76
2023/01/12 08:02:12;;;;;;;3.87;3.20;;;8.60;99.90;;;;;;6050368;23;20415;-77
2023/01/12 08:04:40;;;;;;;5.93;3.27;;;8.60;99.90;;;;;;6050464;23;20394;-76
2023/01/12 08:07:08;;;;;;;4.50;2.90;;;8.60;99.90;;;;;;6050748;23;20722;-77
2023/01/12 08:09:37;;;;;;;4.90;2.97;;;8.60;99.90;;;;;;6050536;23;20404;-77
2023/01/12 08:12:07;;;;;;;4.73;3.00;;;8.60;99.90;;;;;;6050249;23;20435;-77
2023/01/12 08:14:37;;;;;;;4.83;3.80;;;8.60;99.90;;;;;;6041068;23;20483;-77
2023/01/12 08:17:10;;;;;;;4.37;3.30;;;8.70;99.90;;;;;;6050209;23;20431;-77
2023/01/12 08:19:41;;;;;;;5.97;3.73;;;8.70;99.90;;;;;;6039258;23;20427;-78
2023/01/12 08:22:15;;;;;;;3.63;2.93;;;8.70;99.90;;;;;;6039445;23;20455;-77
2023/01/12 08:24:48;;;;;;;7.63;3.47;;;8.70;99.90;;;;;;6039276;23;20415;-77
2023/01/12 08:27:21;;;;;;;6.87;4.17;;;8.70;99.90;;;;;;6040112;23;20440;-77
2023/01/12 08:29:52;;;;;;;4.13;3.27;;;8.70;99.90;;;;;;6050086;23;20387;-77
2023/01/12 08:32:21;;;;;;;4.60;3.60;;;8.80;99.90;;;;;;6041003;23;20419;-77
2023/01/12 08:34:53;;;;;;;7.10;3.07;;;8.80;99.90;;;;;;6038687;23;20751;-76
2023/01/12 08:37:24;;;;;;;4.20;3.13;;;8.80;99.90;;;;;;6038865;23;20447;-76
2023/01/12 08:39:52;;;;;;;9.87;3.70;;;8.80;99.90;;;;;;6050290;23;20391;-76
2023/01/12 08:42:24;;;;;;;4.10;2.80;;;8.90;99.90;;;;;;6049903;23;20418;-76
2023/01/12 08:44:54;;;;;;;3.70;3.23;;;8.90;99.90;;;;;;6041704;23;20756;-76
2023/01/12 08:47:25;;;;;;;4.93;2.97;;;8.90;99.90;;;;;;6038590;23;20995;-77
2023/01/12 08:49:54;;;;;;;3.90;3.00;;;8.90;99.90;;;;;;6038826;23;20430;-76
2023/01/12 08:52:22;;;;;;;4.50;3.03;;;8.90;99.90;;;;;;6038738;23;20427;-77
2023/01/12 08:54:50;;;;;;;4.43;2.90;;;9.00;99.90;;;;;;6038763;23;20427;-78
2023/01/12 08:57:18;;;;;;;3.47;2.60;;;9.00;99.90;;;;;;6038607;23;20447;-77
2023/01/12 08:59:48;;;;;;;6.73;3.30;;;9.00;99.90;;;;;;6038664;23;20415;-76
2023/01/12 09:02:16;;;;;;;5.60;2.93;;;9.00;99.90;;;;;;6050098;23;20430;-77
2023/01/12 09:04:45;;;;;;;7.20;2.70;;;9.00;99.90;;;;;;6038615;23;20442;-77
2023/01/12 09:07:13;;;;;;;4.43;2.23;;;9.10;99.90;;;;;;6038557;23;20442;-77
2023/01/12 09:09:41;;;;;;;3.90;2.50;;;9.10;99.90;;;;;;6040621;23;20504;-77
2023/01/12 09:12:09;;;;;;;5.93;2.10;;;9.10;99.90;;;;;;6038492;23;20793;-75
2023/01/12 09:14:38;;;;;;;4.47;3.10;;;9.10;99.90;;;;;;6062294;23;20446;-76
2023/01/12 09:17:08;;;;;;;4.50;2.73;;;9.20;99.90;;;;;;6038363;23;20475;-76
2023/01/12 09:19:36;;;;;;;2.90;2.17;;;9.20;99.90;;;;;;6040420;23;20420;-76
2023/01/12 09:22:04;;;;;;;3.53;2.20;;;9.20;99.90;;;;;;6049427;23;20416;-76
2023/01/12 09:24:32;;;;;;;3.87;2.30;;;9.30;99.90;;;;;;6038456;23;20904;-77
2023/01/12 09:27:00;;;;;;;4.13;2.10;;;9.30;99.90;;;;;;6038220;23;20440;-77
2023/01/12 09:29:28;;;;;;;4.50;1.97;;;9.30;99.90;;;;;;6050182;23;20436;-77
2023/01/12 09:31:56;;;;;;;3.63;2.00;;;9.40;99.90;;;;;;6038476;23;20420;-77
2023/01/12 09:34:26;;;;;;;2.97;1.73;;;9.40;99.90;;;;;;6038453;23;20427;-77
2023/01/12 09:36:55;;;;;;;3.00;1.80;;;9.40;99.90;;;;;;6038223;23;20932;-76
2023/01/12 09:39:23;;;;;;;3.03;1.70;;;9.50;99.90;;;;;;6049309;23;20435;-75
2023/01/12 09:47:35;;;;;;;2.60;1.60;;;9.50;99.90;;;;;;6038219;23;20438;-76
2023/01/12 09:50:09;;;;;;;3.73;1.87;;;9.60;99.90;;;;;;6038205;23;20828;-77
2023/01/12 09:52:43;;;;;;;3.10;1.60;;;9.60;99.90;;;;;;6038499;23;20418;-77
2023/01/12 09:55:18;;;;;;;3.37;1.60;;;9.60;99.90;;;;;;6050240;23;20392;-77
2023/01/12 09:58:03;;;;;;;2.80;1.40;;;9.70;99.90;;;;;;6038282;23;20447;-75
2023/01/12 10:00:32;;;;;;;3.90;1.77;;;9.80;99.90;;;;;;6049582;23;20391;-77
2023/01/12 10:03:11;;;;;;;3.07;1.60;;;9.70;99.90;;;;;;6050287;23;20410;-77
2023/01/12 10:05:46;;;;;;;3.10;1.70;;;9.80;99.90;;;;;;6038185;23;20496;-75
2023/01/12 10:08:18;;;;;;;4.20;1.40;;;9.80;99.90;;;;;;6038239;23;20490;-75
2023/01/12 10:10:58;;;;;;;3.80;1.50;;;9.80;99.90;;;;;;6038390;23;20471;-75
2023/01/12 10:13:49;;;;;;;4.40;1.80;;;9.80;99.90;;;;;;6049641;23;20384;-75
2023/01/12 10:16:23;;;;;;;4.07;2.13;;;9.90;99.90;;;;;;6035245;23;20916;-75
2023/01/12 10:18:57;;;;;;;3.40;1.90;;;9.90;99.90;;;;;;6038155;23;20967;-76
2023/01/12 10:21:29;;;;;;;2.60;1.50;;;9.90;99.90;;;;;;6038511;23;20416;-76
2023/01/12 10:23:57;;;;;;;3.47;1.90;;;10.00;99.90;;;;;;6038374;23;20472;-76
2023/01/12 10:26:31;;;;;;;3.57;2.07;;;10.00;99.90;;;;;;6038379;23;21021;-76
2023/01/12 10:29:01;;;;;;;3.00;1.87;;;10.00;99.90;;;;;;6040079;23;20396;-76
2023/01/12 10:31:29;;;;;;;2.90;1.83;;;10.00;99.90;;;;;;6049685;23;20487;-77
2023/01/12 10:34:06;;;;;;;3.30;1.77;;;10.00;99.90;;;;;;6039976;23;20460;-77
2023/01/12 10:36:41;;;;;;;3.20;1.83;;;10.10;99.90;;;;;;6049182;23;20427;-77
2023/01/12 10:39:31;;;;;;;2.97;1.93;;;10.10;99.90;;;;;;6037979;23;20443;-76
2023/01/12 10:45:16;;;;;;;3.17;1.63;;;10.10;99.90;;;;;;6038049;23;20442;-76
2023/01/12 10:47:45;;;;;;;2.57;1.50;;;10.10;99.90;;;;;;6038025;23;20412;-76
2023/01/12 10:50:22;;;;;;;2.70;1.60;;;10.20;99.90;;;;;;6039736;23;20507;-76
2023/01/12 10:52:57;;;;;;;2.60;1.50;;;10.20;99.90;;;;;;6049107;23;20787;-76
2023/01/12 10:55:30;;;;;;;3.43;1.83;;;10.20;99.90;;;;;;6014323;23;20434;-76
2023/01/12 10:57:59;;;;;;;3.07;2.00;;;10.30;99.90;;;;;;6050820;23;20384;-76
2023/01/12 11:00:28;;;;;;;3.50;1.83;;;10.30;99.90;;;;;;6041507;23;20464;-76
2023/01/12 11:02:57;;;;;;;3.67;2.20;;;10.30;99.90;;;;;;6050669;23;20401;-76
2023/01/12 11:05:36;;;;;;;2.70;1.90;;;10.30;99.90;;;;;;6015939;23;20773;-76
2023/01/12 11:08:21;;;;;;;2.90;2.10;;;10.40;99.90;;;;;;6015913;23;20412;-76
2023/01/12 11:10:50;;;;;;;2.90;1.93;;;10.40;99.90;;;;;;6015951;23;20420;-76
2023/01/12 11:13:26;;;;;;;3.53;2.10;;;10.40;99.90;;;;;;6050642;23;20408;-76
2023/01/12 11:16:02;;;;;;;3.80;2.67;;;10.40;99.90;;;;;;6015877;23;20439;-75
2023/01/12 11:18:38;;;;;;;3.33;2.30;;;10.40;99.90;;;;;;6050855;23;20415;-76
2023/01/12 11:21:10;;;;;;;3.60;2.13;;;10.40;99.90;;;;;;6041043;23;20401;-76
2023/01/12 11:23:43;;;;;;;3.03;2.27;;;10.50;99.90;;;;;;6051033;23;20388;-76
2023/01/12 11:26:18;;;;;;;3.77;2.80;;;10.50;99.90;;;;;;6015900;23;20502;-75
2023/01/12 11:28:49;;;;;;;4.20;2.50;;;10.50;99.90;;;;;;6015831;23;20911;-76
2023/01/12 11:31:22;;;;;;;4.43;2.90;;;10.50;99.90;;;;;;6015790;23;20752;-76
2023/01/12 11:33:54;;;;;;;4.30;2.83;;;10.50;99.90;;;;;;6015693;23;20431;-76
2023/01/12 11:36:27;;;;;;;5.30;3.17;;;10.60;99.90;;;;;;6016092;23;20530;-76
2023/01/12 11:39:03;;;;;;;4.40;3.10;;;10.60;99.90;;;;;;6050706;23;20427;-76
2023/01/12 11:41:37;;;;;;;5.50;3.70;;;10.60;99.90;;;;;;6050905;23;20391;-76
2023/01/12 11:44:14;;;;;;;4.60;3.03;;;10.60;99.90;;;;;;6015834;23;20442;-76
2023/01/12 11:46:46;;;;;;;4.33;2.90;;;10.60;99.90;;;;;;6050508;23;20900;-76
2023/01/12 11:49:19;;;;;;;4.87;3.50;;;10.70;99.90;;;;;;6022545;23;20443;-76
2023/01/12 11:51:50;;;;;;;5.83;3.60;;;10.70;99.90;;;;;;6051058;23;20416;-76
2023/01/12 11:54:20;;;;;;;5.50;3.73;;;10.80;99.90;;;;;;6039326;23;20404;-76
2023/01/12 11:57:27;;;;;;;5.80;3.80;;;10.80;99.90;;;;;;6039238;23;20440;-76
2023/01/12 12:00:08;;;;;;;4.07;3.07;;;10.80;99.90;;;;;;6039139;23;20467;-76
2023/01/12 12:02:46;;;;;;;6.23;3.57;;;10.90;99.90;;;;;;6050612;23;20415;-76
2023/01/12 12:05:24;;;;;;;4.93;3.50;;;10.90;99.90;;;;;;6039232;23;20427;-76
2023/01/12 12:08:05;;;;;;;5.73;3.27;;;10.90;99.90;;;;;;6050216;23;20380;-76
2023/01/12 12:10:43;;;;;;;6.20;3.40;;;10.90;99.90;;;;;;6039293;23;20496;-76
2023/01/12 12:13:34;;;;;;;5.20;3.57;;;10.90;99.90;;;;;;6039953;23;20416;-76
2023/01/12 12:16:22;;;;;;;3.90;3.13;;;11.00;99.90;;;;;;6035424;23;20443;-76
2023/01/12 12:18:59;;;;;;;5.30;3.07;;;11.00;99.90;;;;;;6052122;23;20420;-77
2023/01/12 12:21:43;;;;;;;4.53;2.70;;;11.00;99.90;;;;;;6039668;23;20413;-77
2023/01/12 12:24:35;;;;;;;4.83;3.47;;;11.10;99.90;;;;;;6050402;23;20398;-77
2023/01/12 12:27:13;;;;;;;7.03;3.60;;;11.10;99.90;;;;;;6050209;23;20435;-77
2023/01/12 12:30:14;;;;;;;5.90;3.40;;;11.10;99.90;;;;;;6050829;23;20399;-76
2023/01/12 12:32:50;;;;;;;4.03;2.97;;;11.20;99.90;;;;;;6039023;23;20452;-77
2023/01/12 12:35:39;;;;;;;5.67;3.03;;;11.20;99.90;;;;;;6038974;23;20416;-75
2023/01/12 12:38:22;;;;;;;4.87;2.73;;;11.20;99.90;;;;;;6039147;23;20493;-76
2023/01/12 12:46:59;;;;;;;3.77;2.10;;;11.20;99.90;;;;;;6038727;23;20436;-77
2023/01/12 12:49:32;;;;;;;3.53;1.90;;;11.20;99.90;;;;;;6049906;23;20477;-76
2023/01/12 12:52:01;;;;;;;2.70;1.80;;;11.20;99.90;;;;;;6015238;23;20408;-75
2023/01/12 12:54:30;;;;;;;3.70;2.20;;;11.30;99.90;;;;;;6015152;23;20419;-77
2023/01/12 12:56:58;;;;;;;3.60;2.10;;;11.30;99.90;;;;;;6050820;23;20423;-75
2023/01/12 12:59:54;;;;;;;3.30;2.30;;;11.30;99.90;;;;;;6015092;23;20466;-77
2023/01/12 13:02:39;;;;;;;2.87;1.80;;;11.30;99.90;;;;;;6050973;23;20393;-75
2023/01/12 13:05:09;;;;;;;3.00;1.90;;;11.30;99.90;;;;;;6049769;23;20388;-77
2023/01/12 13:07:44;;;;;;;3.40;2.20;;;11.30;99.90;;;;;;6049889;23;20506;-77
2023/01/12 13:10:29;;;;;;;3.27;2.23;;;11.40;99.90;;;;;;6049744;23;20388;-77
2023/01/12 13:13:04;;;;;;;2.97;2.20;;;11.30;99.90;;;;;;6015104;23;20409;-75
2023/01/12 13:15:36;;;;;;;4.70;2.53;;;11.30;99.90;;;;;;6050031;23;20396;-75
2023/01/12 13:18:06;;;;;;;5.23;2.40;;;11.30;99.90;;;;;;6049979;23;20389;-75
2023/01/12 13:20:45;;;;;;;4.17;2.97;;;11.30;99.90;;;;;;6049900;23;20515;-77
2023/01/12 13:23:46;;;;;;;5.33;3.47;;;11.40;99.90;;;;;;6014932;23;20787;-77
2023/01/12 13:26:41;;;;;;;5.37;3.30;;;11.30;99.90;;;;;;6014871;23;20454;-77
2023/01/12 13:29:46;;;;;;;4.13;3.00;;;11.30;99.90;;;;;;5996666;23;20455;-77
2023/01/12 13:32:42;;;;;;;5.67;3.73;;;11.40;99.90;;;;;;6049760;23;20387;-77
2023/01/12 13:35:26;;;;;;;4.43;3.90;;;11.40;99.90;;;;;;6015051;23;20748;-77
2023/01/12 13:38:02;;;;;;;4.43;3.77;;;11.40;99.90;;;;;;6050074;23;20475;-76
2023/01/12 13:40:32;;;;;;;5.13;3.90;;;11.40;99.90;;;;;;6049964;23;20476;-77
2023/01/12 13:43:14;;;;;;;5.90;3.57;;;11.40;99.90;;;;;;6014836;23;20790;-75
2023/01/12 13:45:49;;;;;;;4.80;4.20;;;11.40;99.90;;;;;;6040585;23;20518;-77
2023/01/12 13:48:20;;;;;;;6.80;4.53;;;11.40;99.90;;;;;;6047717;23;20842;-76
2023/01/12 13:50:52;;;;;;;4.80;4.30;;;11.40;99.90;;;;;;6014740;23;20416;-75
2023/01/12 13:53:24;;;;;;;7.77;4.90;;;11.40;99.90;;;;;;6040278;23;20740;-76
2023/01/12 13:56:00;;;;;;;6.17;4.77;;;11.40;99.90;;;;;;6014691;23;20447;-76
2023/01/12 13:58:37;;;;;;;5.80;5.20;;;11.40;99.90;;;;;;6014852;23;20422;-75
2023/01/12 14:01:07;;;;;;;7.17;4.90;;;11.40;99.90;;;;;;6014582;23;20440;-75
2023/01/12 14:04:01;;;;;;;6.63;5.20;;;11.40;99.90;;;;;;6049229;23;20435;-75